KPTS/PTS METAR and TAF weather

Enter ICAO airport designator
Station Type Date Time Source
KPTS METAR 2018/12/15 22:35 UTC NOAA

KPTS 152235Z AUTO 04003KT 7SM CLR 11/M05 A3014 RMK AO2 T01121049


Station Type Date Time Source
KPTS Decoded METAR 2018/12/15 22:35 UTC NOAA

Station name not available
Dec 15, 2018 - 05:35 PM EST / 2018.12.15 2235 UTC
Wind: from the NE (040 degrees) at 3 MPH (3 KT):0
Visibility: 7 mile(s):0
Sky conditions: clear
Temperature: 52.2 F (11.2 C)
Dew Point: 23.2 F (-4.9 C)
Relative Humidity: 31%
Pressure (altimeter): 30.14 in. Hg (1020 hPa)
ob: KPTS 152235Z AUTO 04003KT 7SM CLR 11/M05 A3014 RMK AO2 T01121049
cycle: 22

Station Type Date Time Source
KPTS TAF UTC NOAA

Error!


Example: see airport list